sensor_id;sensor_type;location;lat;lon;timestamp;pressure;altitude;pressure_sealevel;temperature;humidity
52957;BME280;38819;42.692;23.342;2023-08-30T00:01:28;94350.91;;;23.23;67.25
52957;BME280;38819;42.692;23.342;2023-08-30T00:03:53;94360.75;;;23.21;65.80
52957;BME280;38819;42.692;23.342;2023-08-30T00:06:19;94363.91;;;23.16;63.76
52957;BME280;38819;42.692;23.342;2023-08-30T00:08:45;94361.94;;;23.16;60.00
52957;BME280;38819;42.692;23.342;2023-08-30T00:11:10;94351.69;;;23.17;60.81
52957;BME280;38819;42.692;23.342;2023-08-30T00:13:36;94374.53;;;23.17;60.91
52957;BME280;38819;42.692;23.342;2023-08-30T00:16:01;94378.84;;;23.22;60.38
52957;BME280;38819;42.692;23.342;2023-08-30T00:18:28;94375.69;;;23.27;60.51
52957;BME280;38819;42.692;23.342;2023-08-30T00:20:54;94365.88;;;23.26;60.05
52957;BME280;38819;42.692;23.342;2023-08-30T00:23:22;94372.56;;;23.21;60.79
52957;BME280;38819;42.692;23.342;2023-08-30T00:25:47;94351.69;;;23.17;59.96
52957;BME280;38819;42.692;23.342;2023-08-30T00:28:12;94349.34;;;23.19;59.46
52957;BME280;38819;42.692;23.342;2023-08-30T00:30:38;94349.34;;;23.26;60.06
52957;BME280;38819;42.692;23.342;2023-08-30T00:33:04;94350.50;;;23.32;59.33
52957;BME280;38819;42.692;23.342;2023-08-30T00:35:29;94350.09;;;23.34;58.38
52957;BME280;38819;42.692;23.342;2023-08-30T00:37:55;94343.81;;;23.29;58.45
52957;BME280;38819;42.692;23.342;2023-08-30T00:40:24;94335.97;;;23.21;58.31
52957;BME280;38819;42.692;23.342;2023-08-30T00:42:50;94345.38;;;23.27;58.42
52957;BME280;38819;42.692;23.342;2023-08-30T00:45:15;94340.66;;;23.35;57.81
52957;BME280;38819;42.692;23.342;2023-08-30T00:47:40;94351.28;;;23.43;57.55
52957;BME280;38819;42.692;23.342;2023-08-30T00:50:06;94365.44;;;23.53;57.31
52957;BME280;38819;42.692;23.342;2023-08-30T00:52:32;94356.00;;;23.46;58.04
52957;BME280;38819;42.692;23.342;2023-08-30T00:54:58;94360.34;;;23.47;58.30
52957;BME280;38819;42.692;23.342;2023-08-30T00:57:24;94365.84;;;23.51;57.63
52957;BME280;38819;42.692;23.342;2023-08-30T00:59:51;94363.09;;;23.51;57.05
52957;BME280;38819;42.692;23.342;2023-08-30T01:02:17;94357.94;;;23.53;56.49
52957;BME280;38819;42.692;23.342;2023-08-30T01:04:43;94352.84;;;23.48;56.78
52957;BME280;38819;42.692;23.342;2023-08-30T01:07:08;94367.03;;;23.43;56.95
52957;BME280;38819;42.692;23.342;2023-08-30T01:09:33;94381.19;;;23.41;56.84
52957;BME280;38819;42.692;23.342;2023-08-30T01:17:13;94410.75;;;23.37;57.49
52957;BME280;38819;42.692;23.342;2023-08-30T01:19:50;94405.63;;;23.36;56.84
52957;BME280;38819;42.692;23.342;2023-08-30T01:27:41;94407.19;;;23.29;56.98
52957;BME280;38819;42.692;23.342;2023-08-30T01:30:08;94407.19;;;23.26;56.70
52957;BME280;38819;42.692;23.342;2023-08-30T01:32:35;94393.81;;;23.24;56.92
52957;BME280;38819;42.692;23.342;2023-08-30T01:35:03;94391.44;;;23.23;57.08
52957;BME280;38819;42.692;23.342;2023-08-30T01:37:30;94394.59;;;23.25;57.09
52957;BME280;38819;42.692;23.342;2023-08-30T01:39:57;94383.56;;;23.25;56.63
52957;BME280;38819;42.692;23.342;2023-08-30T01:42:24;94385.16;;;23.22;56.74
52957;BME280;38819;42.692;23.342;2023-08-30T01:44:51;94391.06;;;23.28;56.31
52957;BME280;38819;42.692;23.342;2023-08-30T01:47:20;94385.53;;;23.28;56.81
52957;BME280;38819;42.692;23.342;2023-08-30T01:49:46;94388.28;;;23.28;56.88
52957;BME280;38819;42.692;23.342;2023-08-30T01:52:12;94391.44;;;23.34;56.39
52957;BME280;38819;42.692;23.342;2023-08-30T01:54:40;94387.13;;;23.29;56.08
52957;BME280;38819;42.692;23.342;2023-08-30T01:57:06;94396.19;;;23.22;56.81
52957;BME280;38819;42.692;23.342;2023-08-30T01:59:32;94397.75;;;23.23;56.38
52957;BME280;38819;42.692;23.342;2023-08-30T02:01:57;94397.75;;;23.16;56.77
52957;BME280;38819;42.692;23.342;2023-08-30T02:04:22;94393.78;;;22.99;57.64
52957;BME280;38819;42.692;23.342;2023-08-30T02:07:11;94401.28;;;23.09;58.54
52957;BME280;38819;42.692;23.342;2023-08-30T02:12:19;94384.28;;;22.61;61.32
52957;BME280;38819;42.692;23.342;2023-08-30T02:14:49;94388.59;;;22.44;61.56
52957;BME280;38819;42.692;23.342;2023-08-30T02:17:15;94391.34;;;22.47;61.45
52957;BME280;38819;42.692;23.342;2023-08-30T02:19:42;94389.75;;;22.35;61.61
52957;BME280;38819;42.692;23.342;2023-08-30T02:22:08;94379.03;;;22.27;61.83
52957;BME280;38819;42.692;23.342;2023-08-30T02:24:34;94385.31;;;22.20;61.96
52957;BME280;38819;42.692;23.342;2023-08-30T02:26:59;94382.16;;;22.18;61.90
52957;BME280;38819;42.692;23.342;2023-08-30T02:29:25;94371.59;;;22.24;62.04
52957;BME280;38819;42.692;23.342;2023-08-30T02:31:50;94371.25;;;22.32;61.12
52957;BME280;38819;42.692;23.342;2023-08-30T02:34:16;94376.38;;;22.30;61.08
52957;BME280;38819;42.692;23.342;2023-08-30T02:36:41;94369.72;;;22.42;60.38
52957;BME280;38819;42.692;23.342;2023-08-30T02:39:07;94369.72;;;22.46;60.33
52957;BME280;38819;42.692;23.342;2023-08-30T02:41:32;94375.22;;;22.46;59.89
52957;BME280;38819;42.692;23.342;2023-08-30T02:43:58;94379.19;;;22.55;59.49
52957;BME280;38819;42.692;23.342;2023-08-30T02:46:23;94372.47;;;22.60;58.97
52957;BME280;38819;42.692;23.342;2023-08-30T02:48:48;94376.81;;;22.72;59.08
52957;BME280;38819;42.692;23.342;2023-08-30T02:51:14;94364.66;;;22.73;58.68
52957;BME280;38819;42.692;23.342;2023-08-30T02:53:39;94366.22;;;22.70;59.20
52957;BME280;38819;42.692;23.342;2023-08-30T02:56:05;94364.25;;;22.71;58.10
52957;BME280;38819;42.692;23.342;2023-08-30T02:58:30;94356.38;;;22.66;59.29
52957;BME280;38819;42.692;23.342;2023-08-30T03:00:55;94366.63;;;22.76;58.04
52957;BME280;38819;42.692;23.342;2023-08-30T03:03:21;94357.97;;;22.78;59.03
52957;BME280;38819;42.692;23.342;2023-08-30T03:05:46;94357.59;;;22.75;59.48
52957;BME280;38819;42.692;23.342;2023-08-30T03:08:11;94370.16;;;22.73;59.04
52957;BME280;38819;42.692;23.342;2023-08-30T03:10:37;94368.56;;;22.72;59.53
52957;BME280;38819;42.692;23.342;2023-08-30T03:13:02;94366.63;;;22.72;60.16
52957;BME280;38819;42.692;23.342;2023-08-30T03:15:31;94370.53;;;22.71;59.59
52957;BME280;38819;42.692;23.342;2023-08-30T03:17:57;94364.25;;;22.71;59.50
52957;BME280;38819;42.692;23.342;2023-08-30T03:20:22;94376.44;;;22.70;59.99
52957;BME280;38819;42.692;23.342;2023-08-30T03:22:47;94373.69;;;22.70;59.09
52957;BME280;38819;42.692;23.342;2023-08-30T03:25:13;94382.31;;;22.72;58.61
52957;BME280;38819;42.692;23.342;2023-08-30T03:27:38;94371.34;;;22.75;57.25
52957;BME280;38819;42.692;23.342;2023-08-30T03:30:04;94372.13;;;22.76;58.23
52957;BME280;38819;42.692;23.342;2023-08-30T03:32:31;94365.44;;;22.73;57.67
52957;BME280;38819;42.692;23.342;2023-08-30T03:34:57;94360.31;;;22.57;57.72
52957;BME280;38819;42.692;23.342;2023-08-30T03:37:23;94363.44;;;22.63;57.22
52957;BME280;38819;42.692;23.342;2023-08-30T03:39:48;94362.25;;;22.43;62.06
52957;BME280;38819;42.692;23.342;2023-08-30T03:42:14;94352.00;;;22.47;62.55
52957;BME280;38819;42.692;23.342;2023-08-30T03:44:39;94363.00;;;22.36;63.18
52957;BME280;38819;42.692;23.342;2023-08-30T03:47:05;94353.16;;;22.35;63.33
52957;BME280;38819;42.692;23.342;2023-08-30T03:49:30;94353.16;;;22.31;63.57
52957;BME280;38819;42.692;23.342;2023-08-30T03:51:56;94359.06;;;22.33;63.42
52957;BME280;38819;42.692;23.342;2023-08-30T03:54:21;94362.53;;;22.27;63.96
52957;BME280;38819;42.692;23.342;2023-08-30T03:56:47;94363.31;;;22.16;64.80
52957;BME280;38819;42.692;23.342;2023-08-30T03:59:12;94370.38;;;22.10;65.40
52957;BME280;38819;42.692;23.342;2023-08-30T04:01:38;94376.50;;;21.78;66.58
52957;BME280;38819;42.692;23.342;2023-08-30T04:04:04;94388.84;;;21.43;67.22
52957;BME280;38819;42.692;23.342;2023-08-30T04:06:30;94390.41;;;21.44;67.84
52957;BME280;38819;42.692;23.342;2023-08-30T04:08:55;94389.72;;;21.58;67.45
52957;BME280;38819;42.692;23.342;2023-08-30T04:11:20;94386.28;;;21.69;67.29
52957;BME280;38819;42.692;23.342;2023-08-30T04:13:46;94375.69;;;21.74;66.83
52957;BME280;38819;42.692;23.342;2023-08-30T04:16:11;94376.94;;;21.84;66.90
52957;BME280;38819;42.692;23.342;2023-08-30T04:18:37;94386.72;;;21.81;67.54
52957;BME280;38819;42.692;23.342;2023-08-30T04:21:02;94402.81;;;21.83;67.74
52957;BME280;38819;42.692;23.342;2023-08-30T04:23:28;94407.59;;;21.93;67.64
52957;BME280;38819;42.692;23.342;2023-08-30T04:25:54;94401.38;;;22.04;67.59
52957;BME280;38819;42.692;23.342;2023-08-30T04:28:20;94404.53;;;22.09;67.05
52957;BME280;38819;42.692;23.342;2023-08-30T04:30:46;94409.69;;;22.25;66.53
52957;BME280;38819;42.692;23.342;2023-08-30T04:33:11;94417.53;;;22.23;66.58
52957;BME280;38819;42.692;23.342;2023-08-30T04:35:37;94421.16;;;22.31;66.22
52957;BME280;38819;42.692;23.342;2023-08-30T04:38:02;94432.56;;;22.40;66.03
52957;BME280;38819;42.692;23.342;2023-08-30T04:40:29;94454.63;;;22.51;65.42
52957;BME280;38819;42.692;23.342;2023-08-30T04:42:55;94456.59;;;22.50;64.90
52957;BME280;38819;42.692;23.342;2023-08-30T04:45:21;94464.03;;;22.50;63.72
52957;BME280;38819;42.692;23.342;2023-08-30T04:47:47;94460.38;;;22.17;65.16
52957;BME280;38819;42.692;23.342;2023-08-30T04:50:13;94465.50;;;22.26;64.74
52957;BME280;38819;42.692;23.342;2023-08-30T04:52:38;94463.81;;;22.07;64.95
52957;BME280;38819;42.692;23.342;2023-08-30T04:55:04;94449.94;;;21.85;65.01
52957;BME280;38819;42.692;23.342;2023-08-30T04:57:29;94442.81;;;21.73;64.88
52957;BME280;38819;42.692;23.342;2023-08-30T04:59:55;94447.94;;;21.78;64.88
52957;BME280;38819;42.692;23.342;2023-08-30T05:02:20;94449.88;;;21.67;65.26
52957;BME280;38819;42.692;23.342;2023-08-30T05:04:46;94444.63;;;21.51;66.47
52957;BME280;38819;42.692;23.342;2023-08-30T05:07:11;94448.13;;;21.48;66.79
52957;BME280;38819;42.692;23.342;2023-08-30T05:09:37;94443.97;;;21.17;67.47
52957;BME280;38819;42.692;23.342;2023-08-30T05:12:02;94453.72;;;21.14;67.60
52957;BME280;38819;42.692;23.342;2023-08-30T05:14:28;94454.50;;;21.15;67.38
52957;BME280;38819;42.692;23.342;2023-08-30T05:16:53;94452.59;;;21.19;67.32
52957;BME280;38819;42.692;23.342;2023-08-30T05:19:19;94445.97;;;21.23;67.15
52957;BME280;38819;42.692;23.342;2023-08-30T05:21:44;94451.16;;;21.36;66.98
52957;BME280;38819;42.692;23.342;2023-08-30T05:24:10;94447.66;;;21.39;65.84
52957;BME280;38819;42.692;23.342;2023-08-30T05:26:36;94443.47;;;21.49;65.93
52957;BME280;38819;42.692;23.342;2023-08-30T05:29:02;94444.28;;;21.60;61.72
52957;BME280;38819;42.692;23.342;2023-08-30T05:31:28;94460.41;;;21.65;59.48
52957;BME280;38819;42.692;23.342;2023-08-30T05:33:53;94458.53;;;21.73;58.75
52957;BME280;38819;42.692;23.342;2023-08-30T05:36:19;94457.38;;;21.77;58.22
52957;BME280;38819;42.692;23.342;2023-08-30T05:38:44;94468.06;;;21.90;57.72
52957;BME280;38819;42.692;23.342;2023-08-30T05:41:10;94450.03;;;21.99;58.04
52957;BME280;38819;42.692;23.342;2023-08-30T05:43:36;94454.41;;;22.08;57.92
52957;BME280;38819;42.692;23.342;2023-08-30T05:46:02;94457.16;;;22.04;57.80
52957;BME280;38819;42.692;23.342;2023-08-30T05:48:28;94450.13;;;22.17;57.80
52957;BME280;38819;42.692;23.342;2023-08-30T05:50:54;94447.03;;;22.23;57.17
52957;BME280;38819;42.692;23.342;2023-08-30T05:53:19;94448.59;;;22.24;57.32
52957;BME280;38819;42.692;23.342;2023-08-30T05:55:45;94449.44;;;22.35;57.48
52957;BME280;38819;42.692;23.342;2023-08-30T05:58:10;94456.94;;;22.42;57.58
52957;BME280;38819;42.692;23.342;2023-08-30T06:00:36;94449.09;;;22.44;56.83
52957;BME280;38819;42.692;23.342;2023-08-30T06:03:01;94453.47;;;22.55;56.71
52957;BME280;38819;42.692;23.342;2023-08-30T06:05:28;94452.72;;;22.66;56.22
52957;BME280;38819;42.692;23.342;2023-08-30T06:07:53;94457.47;;;22.76;56.02
52957;BME280;38819;42.692;23.342;2023-08-30T06:10:19;94451.19;;;22.86;55.83
52957;BME280;38819;42.692;23.342;2023-08-30T06:12:44;94446.88;;;22.89;55.74
52957;BME280;38819;42.692;23.342;2023-08-30T06:15:10;94442.16;;;22.89;55.85
52957;BME280;38819;42.692;23.342;2023-08-30T06:17:35;94440.59;;;23.03;55.61
52957;BME280;38819;42.692;23.342;2023-08-30T06:20:01;94445.34;;;23.09;55.85
52957;BME280;38819;42.692;23.342;2023-08-30T06:22:26;94441.75;;;23.02;55.15
52957;BME280;38819;42.692;23.342;2023-08-30T06:24:52;94448.50;;;23.08;55.43
52957;BME280;38819;42.692;23.342;2023-08-30T06:27:17;94449.28;;;23.08;54.75
52957;BME280;38819;42.692;23.342;2023-08-30T06:29:43;94448.50;;;23.22;54.65
52957;BME280;38819;42.692;23.342;2023-08-30T06:32:08;94465.41;;;23.39;54.91
52957;BME280;38819;42.692;23.342;2023-08-30T06:34:34;94461.50;;;23.40;55.19
52957;BME280;38819;42.692;23.342;2023-08-30T06:36:59;94459.13;;;23.35;55.67
52957;BME280;38819;42.692;23.342;2023-08-30T06:39:24;94453.63;;;23.38;55.29
52957;BME280;38819;42.692;23.342;2023-08-30T06:41:50;94456.78;;;23.51;54.80
52957;BME280;38819;42.692;23.342;2023-08-30T06:44:15;94461.09;;;23.52;54.90
52957;BME280;38819;42.692;23.342;2023-08-30T06:46:42;94455.22;;;23.61;54.71
52957;BME280;38819;42.692;23.342;2023-08-30T06:49:08;94458.75;;;23.58;54.80
52957;BME280;38819;42.692;23.342;2023-08-30T06:51:34;94461.09;;;23.70;54.54
52957;BME280;38819;42.692;23.342;2023-08-30T06:54:00;94458.72;;;23.76;54.03
52957;BME280;38819;42.692;23.342;2023-08-30T06:56:29;94459.53;;;23.73;54.17
52957;BME280;38819;42.692;23.342;2023-08-30T06:58:54;94453.63;;;23.60;54.33
52957;BME280;38819;42.692;23.342;2023-08-30T07:01:19;94457.56;;;23.70;53.26
52957;BME280;38819;42.692;23.342;2023-08-30T07:03:45;94449.31;;;23.84;53.43
52957;BME280;38819;42.692;23.342;2023-08-30T07:06:10;94446.91;;;23.97;53.63
52957;BME280;38819;42.692;23.342;2023-08-30T07:08:36;94463.06;;;23.73;53.28
52957;BME280;38819;42.692;23.342;2023-08-30T07:11:01;94446.13;;;23.82;53.74
52957;BME280;38819;42.692;23.342;2023-08-30T07:13:27;94452.00;;;23.98;53.43
52957;BME280;38819;42.692;23.342;2023-08-30T07:15:52;94451.97;;;24.13;52.87
52957;BME280;38819;42.692;23.342;2023-08-30T07:18:18;94458.69;;;24.08;52.91
52957;BME280;38819;42.692;23.342;2023-08-30T07:20:43;94451.19;;;24.12;52.05
52957;BME280;38819;42.692;23.342;2023-08-30T07:23:09;94441.31;;;24.18;52.71
52957;BME280;38819;42.692;23.342;2023-08-30T07:25:37;94439.75;;;24.21;52.98
52957;BME280;38819;42.692;23.342;2023-08-30T07:28:03;94453.53;;;24.21;53.17
52957;BME280;38819;42.692;23.342;2023-08-30T07:30:29;94452.78;;;24.06;53.93
52957;BME280;38819;42.692;23.342;2023-08-30T07:32:54;94460.28;;;24.02;54.18
52957;BME280;38819;42.692;23.342;2023-08-30T07:35:20;94462.69;;;23.89;53.38
52957;BME280;38819;42.692;23.342;2023-08-30T07:37:45;94460.31;;;23.70;53.57
52957;BME280;38819;42.692;23.342;2023-08-30T07:40:11;94464.25;;;23.76;53.73
52957;BME280;38819;42.692;23.342;2023-08-30T07:42:37;94465.03;;;23.80;54.02
52957;BME280;38819;42.692;23.342;2023-08-30T07:45:02;94454.81;;;23.88;54.29
52957;BME280;38819;42.692;23.342;2023-08-30T07:47:29;94459.50;;;23.76;54.38
52957;BME280;38819;42.692;23.342;2023-08-30T07:49:54;94449.28;;;23.66;54.70
52957;BME280;38819;42.692;23.342;2023-08-30T07:52:20;94444.94;;;23.68;54.94
52957;BME280;38819;42.692;23.342;2023-08-30T07:54:45;94449.28;;;23.59;54.54
52957;BME280;38819;42.692;23.342;2023-08-30T07:57:11;94456.38;;;23.71;54.95
52957;BME280;38819;42.692;23.342;2023-08-30T07:59:37;94449.28;;;23.70;55.29
52957;BME280;38819;42.692;23.342;2023-08-30T08:02:06;94454.38;;;23.75;54.92
52957;BME280;38819;42.692;23.342;2023-08-30T08:04:35;94456.38;;;23.85;54.25
52957;BME280;38819;42.692;23.342;2023-08-30T08:07:02;94459.53;;;23.94;54.08
52957;BME280;38819;42.692;23.342;2023-08-30T08:09:27;94457.13;;;24.00;52.97
52957;BME280;38819;42.692;23.342;2023-08-30T08:11:53;94454.78;;;23.98;52.98
52957;BME280;38819;42.692;23.342;2023-08-30T08:14:19;94459.13;;;23.96;52.92
52957;BME280;38819;42.692;23.342;2023-08-30T08:16:44;94454.75;;;24.13;51.10
52957;BME280;38819;42.692;23.342;2023-08-30T08:19:09;94461.03;;;24.24;49.17
52957;BME280;38819;42.692;23.342;2023-08-30T08:21:35;94455.84;;;24.33;48.09
52957;BME280;38819;42.692;23.342;2023-08-30T08:24:01;94449.88;;;24.49;50.10
52957;BME280;38819;42.692;23.342;2023-08-30T08:26:26;94468.44;;;24.56;46.96
52957;BME280;38819;42.692;23.342;2023-08-30T08:28:53;94458.16;;;24.53;44.33
52957;BME280;38819;42.692;23.342;2023-08-30T08:31:18;94458.59;;;24.44;45.65
52957;BME280;38819;42.692;23.342;2023-08-30T08:33:44;94466.88;;;24.37;46.85
52957;BME280;38819;42.692;23.342;2023-08-30T08:36:09;94473.94;;;24.49;47.76
52957;BME280;38819;42.692;23.342;2023-08-30T08:38:35;94464.06;;;24.51;46.37
52957;BME280;38819;42.692;23.342;2023-08-30T08:41:05;94464.81;;;24.70;46.24
52957;BME280;38819;42.692;23.342;2023-08-30T08:43:32;94471.47;;;24.76;46.66
52957;BME280;38819;42.692;23.342;2023-08-30T08:46:02;94462.78;;;24.81;46.94
52957;BME280;38819;42.692;23.342;2023-08-30T08:48:29;94462.44;;;24.68;47.33
52957;BME280;38819;42.692;23.342;2023-08-30T08:50:57;94463.56;;;24.78;46.83
52957;BME280;38819;42.692;23.342;2023-08-30T08:53:22;94462.31;;;24.90;44.45
52957;BME280;38819;42.692;23.342;2023-08-30T08:55:48;94448.50;;;24.93;45.02
52957;BME280;38819;42.692;23.342;2023-08-30T08:58:14;94463.47;;;25.00;45.67
52957;BME280;38819;42.692;23.342;2023-08-30T09:00:42;94460.38;;;24.87;46.62
52957;BME280;38819;42.692;23.342;2023-08-30T09:03:08;94451.78;;;24.70;48.14
52957;BME280;38819;42.692;23.342;2023-08-30T09:05:37;94452.16;;;24.72;48.51
52957;BME280;38819;42.692;23.342;2023-08-30T09:08:02;94457.28;;;24.74;47.79
52957;BME280;38819;42.692;23.342;2023-08-30T09:10:29;94453.69;;;24.81;47.73
52957;BME280;38819;42.692;23.342;2023-08-30T09:12:55;94459.19;;;24.88;47.71
52957;BME280;38819;42.692;23.342;2023-08-30T09:15:20;94447.25;;;25.02;46.49
52957;BME280;38819;42.692;23.342;2023-08-30T09:17:46;94452.38;;;25.03;46.57
52957;BME280;38819;42.692;23.342;2023-08-30T09:20:12;94451.13;;;25.15;46.57
52957;BME280;38819;42.692;23.342;2023-08-30T09:22:42;94447.13;;;25.23;46.05
52957;BME280;38819;42.692;23.342;2023-08-30T09:25:09;94438.06;;;25.23;46.65
52957;BME280;38819;42.692;23.342;2023-08-30T09:27:35;94445.91;;;25.31;46.38
52957;BME280;38819;42.692;23.342;2023-08-30T09:30:01;94447.72;;;25.49;46.15
52957;BME280;38819;42.692;23.342;2023-08-30T09:32:28;94439.38;;;25.56;46.16
52957;BME280;38819;42.692;23.342;2023-08-30T09:34:53;94445.94;;;25.73;46.02
52957;BME280;38819;42.692;23.342;2023-08-30T09:37:22;94436.44;;;25.78;45.12
52957;BME280;38819;42.692;23.342;2023-08-30T09:39:49;94440.66;;;25.89;45.10
52957;BME280;38819;42.692;23.342;2023-08-30T09:42:16;94440.56;;;26.00;44.68
52957;BME280;38819;42.692;23.342;2023-08-30T09:44:43;94438.00;;;25.79;44.90
52957;BME280;38819;42.692;23.342;2023-08-30T09:47:08;94439.97;;;25.78;45.31
52957;BME280;38819;42.692;23.342;2023-08-30T09:49:45;94423.66;;;25.87;44.98
52957;BME280;38819;42.692;23.342;2023-08-30T09:52:12;94424.16;;;25.79;45.37
52957;BME280;38819;42.692;23.342;2023-08-30T09:54:41;94425.00;;;25.72;45.60
52957;BME280;38819;42.692;23.342;2023-08-30T09:57:12;94432.31;;;25.93;45.17
52957;BME280;38819;42.692;23.342;2023-08-30T09:59:39;94417.66;;;26.00;44.88
52957;BME280;38819;42.692;23.342;2023-08-30T10:02:05;94416.06;;;25.99;44.75
52957;BME280;38819;42.692;23.342;2023-08-30T10:04:31;94417.56;;;26.07;44.74
52957;BME280;38819;42.692;23.342;2023-08-30T10:06:59;94418.13;;;25.91;45.13
52957;BME280;38819;42.692;23.342;2023-08-30T10:09:25;94415.63;;;26.04;45.13
52957;BME280;38819;42.692;23.342;2023-08-30T10:11:51;94413.16;;;26.13;44.58
52957;BME280;38819;42.692;23.342;2023-08-30T10:14:17;94415.09;;;26.16;44.97
52957;BME280;38819;42.692;23.342;2023-08-30T10:16:47;94408.44;;;26.10;44.46
52957;BME280;38819;42.692;23.342;2023-08-30T10:19:16;94405.44;;;25.94;44.68
52957;BME280;38819;42.692;23.342;2023-08-30T10:21:47;94405.78;;;25.99;44.40
52957;BME280;38819;42.692;23.342;2023-08-30T10:24:16;94400.59;;;26.05;44.58
52957;BME280;38819;42.692;23.342;2023-08-30T10:26:42;94398.09;;;26.18;44.61
52957;BME280;38819;42.692;23.342;2023-08-30T10:29:10;94402.75;;;26.24;44.35
52957;BME280;38819;42.692;23.342;2023-08-30T10:31:38;94399.81;;;26.39;44.41
52957;BME280;38819;42.692;23.342;2023-08-30T10:34:13;94400.09;;;26.48;44.60
52957;BME280;38819;42.692;23.342;2023-08-30T10:36:39;94396.34;;;26.62;44.74
52957;BME280;38819;42.692;23.342;2023-08-30T10:39:11;94403.38;;;26.70;43.88
52957;BME280;38819;42.692;23.342;2023-08-30T10:41:36;94395.53;;;26.65;43.88
52957;BME280;38819;42.692;23.342;2023-08-30T10:44:02;94401.34;;;26.74;43.22
52957;BME280;38819;42.692;23.342;2023-08-30T10:46:29;94397.31;;;26.79;43.17
52957;BME280;38819;42.692;23.342;2023-08-30T10:48:55;94393.19;;;26.64;43.83
52957;BME280;38819;42.692;23.342;2023-08-30T10:51:35;94392.16;;;26.50;43.91
52957;BME280;38819;42.692;23.342;2023-08-30T10:54:14;94386.72;;;26.43;43.97
52957;BME280;38819;42.692;23.342;2023-08-30T10:57:15;94383.13;;;26.42;44.33
52957;BME280;38819;42.692;23.342;2023-08-30T11:00:03;94380.72;;;26.44;44.30
52957;BME280;38819;42.692;23.342;2023-08-30T11:02:30;94386.31;;;26.41;44.52
52957;BME280;38819;42.692;23.342;2023-08-30T11:04:57;94378.72;;;26.49;43.79
52957;BME280;38819;42.692;23.342;2023-08-30T11:07:25;94376.78;;;26.46;44.22
52957;BME280;38819;42.692;23.342;2023-08-30T11:09:52;94375.94;;;26.49;43.97
52957;BME280;38819;42.692;23.342;2023-08-30T11:12:20;94372.00;;;26.50;44.53
52957;BME280;38819;42.692;23.342;2023-08-30T11:14:51;94370.72;;;26.54;44.53
52957;BME280;38819;42.692;23.342;2023-08-30T11:17:17;94378.16;;;26.61;43.02
52957;BME280;38819;42.692;23.342;2023-08-30T11:19:43;94372.75;;;26.50;43.29
52957;BME280;38819;42.692;23.342;2023-08-30T11:22:09;94366.75;;;26.55;43.33
52957;BME280;38819;42.692;23.342;2023-08-30T11:24:35;94359.91;;;26.67;43.30
52957;BME280;38819;42.692;23.342;2023-08-30T11:27:00;94357.50;;;26.69;42.57
52957;BME280;38819;42.692;23.342;2023-08-30T11:29:27;94356.19;;;26.77;42.54
52957;BME280;38819;42.692;23.342;2023-08-30T11:31:52;94347.09;;;26.77;43.12
52957;BME280;38819;42.692;23.342;2023-08-30T11:34:23;94349.75;;;26.84;43.00
52957;BME280;38819;42.692;23.342;2023-08-30T11:36:54;94331.19;;;26.81;42.04
52957;BME280;38819;42.692;23.342;2023-08-30T11:39:20;94340.06;;;26.96;42.06
52957;BME280;38819;42.692;23.342;2023-08-30T11:41:47;94337.50;;;27.09;42.65
52957;BME280;38819;42.692;23.342;2023-08-30T11:44:13;94340.16;;;27.16;42.10
52957;BME280;38819;42.692;23.342;2023-08-30T11:46:41;94348.41;;;27.20;41.36
52957;BME280;38819;42.692;23.342;2023-08-30T11:49:09;94334.53;;;27.20;41.56
52957;BME280;38819;42.692;23.342;2023-08-30T11:51:35;94330.16;;;27.22;41.61
52957;BME280;38819;42.692;23.342;2023-08-30T11:54:04;94324.19;;;27.24;41.77
52957;BME280;38819;42.692;23.342;2023-08-30T11:56:30;94326.53;;;27.25;41.72
52957;BME280;38819;42.692;23.342;2023-08-30T11:58:55;94324.19;;;27.24;41.65
52957;BME280;38819;42.692;23.342;2023-08-30T12:01:21;94323.25;;;27.34;41.30
52957;BME280;38819;42.692;23.342;2023-08-30T12:03:46;94326.56;;;27.49;41.04
52957;BME280;38819;42.692;23.342;2023-08-30T12:06:16;94324.78;;;27.59;40.57
52957;BME280;38819;42.692;23.342;2023-08-30T12:08:41;94315.97;;;27.64;40.24
52957;BME280;38819;42.692;23.342;2023-08-30T12:11:18;94319.84;;;27.70;39.71
52957;BME280;38819;42.692;23.342;2023-08-30T12:13:44;94312.50;;;27.80;40.96
52957;BME280;38819;42.692;23.342;2023-08-30T12:16:15;94315.56;;;27.85;40.16
52957;BME280;38819;42.692;23.342;2023-08-30T12:18:41;94307.78;;;28.00;39.31
52957;BME280;38819;42.692;23.342;2023-08-30T12:21:07;94309.13;;;28.12;37.72
52957;BME280;38819;42.692;23.342;2023-08-30T12:23:33;94298.69;;;28.16;36.24
52957;BME280;38819;42.692;23.342;2023-08-30T12:26:11;94295.41;;;28.21;33.41
52957;BME280;38819;42.692;23.342;2023-08-30T12:28:41;94303.19;;;28.30;33.55
52957;BME280;38819;42.692;23.342;2023-08-30T12:31:09;94294.25;;;28.39;31.95
52957;BME280;38819;42.692;23.342;2023-08-30T12:33:36;94293.91;;;28.37;31.11
52957;BME280;38819;42.692;23.342;2023-08-30T12:36:02;94281.25;;;28.36;30.63
52957;BME280;38819;42.692;23.342;2023-08-30T12:38:29;94290.22;;;28.43;30.79
52957;BME280;38819;42.692;23.342;2023-08-30T12:40:55;94282.72;;;28.40;30.94
52957;BME280;38819;42.692;23.342;2023-08-30T12:43:21;94279.88;;;28.44;30.25
52957;BME280;38819;42.692;23.342;2023-08-30T12:45:47;94279.00;;;28.47;30.56
52957;BME280;38819;42.692;23.342;2023-08-30T12:48:14;94275.00;;;28.48;29.78
52957;BME280;38819;42.692;23.342;2023-08-30T12:50:40;94264.56;;;28.56;29.22
52957;BME280;38819;42.692;23.342;2023-08-30T12:53:07;94257.00;;;28.56;29.50
52957;BME280;38819;42.692;23.342;2023-08-30T12:55:33;94260.06;;;28.62;29.88
52957;BME280;38819;42.692;23.342;2023-08-30T12:58:04;94256.66;;;28.71;29.83
52957;BME280;38819;42.692;23.342;2023-08-30T13:00:29;94251.44;;;28.73;28.99